createdAt,value
2022-08-17T00:02:26.152Z,11.13
2022-08-17T00:05:33.488Z,10.38
2022-08-17T00:08:38.419Z,9.80
2022-08-17T00:11:43.085Z,10.93
2022-08-17T00:15:10.339Z,11.57
2022-08-17T00:18:53.778Z,11.20
2022-08-17T00:22:28.658Z,11.85
2022-08-17T00:25:05.287Z,10.75
2022-08-17T00:28:08.009Z,9.90
2022-08-17T00:31:11.533Z,11.45
2022-08-17T00:34:14.005Z,11.18
2022-08-17T00:37:17.868Z,12.13
2022-08-17T00:40:20.689Z,12.00
2022-08-17T00:43:32.042Z,12.30
2022-08-17T00:46:40.373Z,11.80
2022-08-17T00:49:42.861Z,13.52
2022-08-17T00:52:55.041Z,12.40
2022-08-17T00:55:58.599Z,11.95
2022-08-17T00:59:02.958Z,11.40
2022-08-17T01:02:07.214Z,12.00
2022-08-17T01:05:13.410Z,11.70
2022-08-17T01:08:20.351Z,13.45
2022-08-17T01:11:22.890Z,12.35
2022-08-17T01:14:26.930Z,13.48
2022-08-17T01:17:29.741Z,12.52
2022-08-17T01:20:43.107Z,12.43
2022-08-17T01:23:52.873Z,12.05
2022-08-17T01:26:56.607Z,12.88
2022-08-17T01:30:04.210Z,12.63
2022-08-17T01:33:26.643Z,11.38
2022-08-17T01:36:29.331Z,11.38
2022-08-17T01:39:37.060Z,11.20
2022-08-17T01:42:43.477Z,11.85
2022-08-17T01:45:49.527Z,12.02
2022-08-17T01:49:07.995Z,10.90
2022-08-17T01:52:12.944Z,12.13
2022-08-17T01:55:24.575Z,11.88
2022-08-17T01:58:29.853Z,11.73
2022-08-17T02:01:34.614Z,11.63
2022-08-17T02:04:37.264Z,12.27
2022-08-17T02:07:56.015Z,12.45
2022-08-17T02:11:06.069Z,11.93
2022-08-17T02:14:14.325Z,12.70
2022-08-17T02:17:16.899Z,12.90
2022-08-17T02:20:41.376Z,13.57
2022-08-17T02:23:47.423Z,12.35
2022-08-17T02:26:51.223Z,12.15
2022-08-17T02:29:53.717Z,12.82
2022-08-17T02:32:57.030Z,12.52
2022-08-17T02:35:59.560Z,13.45
2022-08-17T02:39:03.118Z,13.10
2022-08-17T02:42:07.220Z,12.35
2022-08-17T02:45:13.545Z,13.98
2022-08-17T02:48:16.014Z,13.75
2022-08-17T02:51:33.413Z,14.27
2022-08-17T02:54:41.473Z,13.57
2022-08-17T02:57:46.525Z,13.52
2022-08-17T03:00:49.083Z,14.07
2022-08-17T03:03:51.554Z,13.63
2022-08-17T03:06:55.113Z,14.15
2022-08-17T03:09:57.546Z,13.63
2022-08-17T03:13:01.653Z,13.70
2022-08-17T03:16:04.850Z,12.63
2022-08-17T03:19:07.296Z,12.30
2022-08-17T03:22:36.713Z,13.48
2022-08-17T03:25:34.949Z,12.60
2022-08-17T03:28:39.660Z,13.13
2022-08-17T03:31:42.113Z,13.90
2022-08-17T03:34:44.599Z,13.48
2022-08-17T03:37:47.636Z,14.10
2022-08-17T03:41:03.168Z,12.65
2022-08-17T03:44:07.254Z,14.13
2022-08-17T03:47:27.425Z,14.02
2022-08-17T03:51:02.327Z,13.95
2022-08-17T03:54:22.810Z,13.50
2022-08-17T03:57:25.755Z,13.85
2022-08-17T04:00:29.575Z,14.15
2022-08-17T04:03:32.049Z,15.32
2022-08-17T04:06:34.579Z,14.43
2022-08-17T04:09:37.446Z,14.15
2022-08-17T04:12:46.358Z,14.18
2022-08-17T04:15:50.694Z,13.30
2022-08-17T04:18:53.688Z,13.65
2022-08-17T04:21:57.718Z,13.85
2022-08-17T04:25:00.299Z,15.30
2022-08-17T04:28:03.942Z,16.13
2022-08-17T04:31:11.425Z,16.15
2022-08-17T04:34:13.874Z,15.75
2022-08-17T04:37:16.421Z,16.10
2022-08-17T04:40:37.776Z,15.88
2022-08-17T04:43:42.123Z,15.13
2022-08-17T04:46:46.856Z,14.25
2022-08-17T04:49:49.279Z,13.82
2022-08-17T04:52:51.962Z,11.60
2022-08-17T04:55:55.412Z,11.93
2022-08-17T04:59:00.328Z,11.07
2022-08-17T05:02:04.130Z,11.27
2022-08-17T05:05:07.332Z,10.68
2022-08-17T05:08:10.428Z,10.60
2022-08-17T05:11:12.876Z,10.35
2022-08-17T05:14:15.867Z,9.85
2022-08-17T05:17:19.635Z,9.70
2022-08-17T05:20:22.520Z,10.32
2022-08-17T05:23:27.438Z,9.60
2022-08-17T05:26:41.722Z,9.43
2022-08-17T05:29:44.989Z,10.15
2022-08-17T05:32:54.494Z,9.85
2022-08-17T05:35:59.462Z,9.32
2022-08-17T05:39:02.212Z,10.25
2022-08-17T05:42:04.987Z,10.57
2022-08-17T05:45:08.630Z,9.90
2022-08-17T05:48:13.124Z,10.23
2022-08-17T05:51:32.916Z,9.60
2022-08-17T05:54:44.603Z,9.45
2022-08-17T05:58:00.860Z,11.18
2022-08-17T06:01:10.942Z,11.25
2022-08-17T06:04:35.768Z,11.50
2022-08-17T06:07:49.290Z,11.20
2022-08-17T06:10:59.745Z,10.80
2022-08-17T06:14:14.550Z,10.37
2022-08-17T06:17:21.950Z,10.73
2022-08-17T06:20:27.996Z,9.63
2022-08-17T06:23:35.987Z,10.30
2022-08-17T06:26:43.412Z,9.57
2022-08-17T06:29:53.912Z,10.95
2022-08-17T06:33:05.944Z,9.87
2022-08-17T06:36:24.974Z,9.10
2022-08-17T06:39:38.804Z,9.55
2022-08-17T06:43:06.180Z,9.65
2022-08-17T06:46:14.332Z,8.13
2022-08-17T06:49:25.339Z,9.45
2022-08-17T06:52:46.923Z,8.57
2022-08-17T06:55:56.793Z,9.32
2022-08-17T06:59:00.761Z,8.65
2022-08-17T07:02:08.105Z,8.68
2022-08-17T07:05:10.753Z,8.70
2022-08-17T07:08:20.595Z,7.80
2022-08-17T07:11:28.528Z,8.73
2022-08-17T07:14:36.604Z,7.63
2022-08-17T07:17:56.826Z,7.93
2022-08-17T07:21:08.371Z,7.83
2022-08-17T07:24:30.464Z,7.65
2022-08-17T07:27:37.325Z,7.75
2022-08-17T07:30:45.907Z,7.88
2022-08-17T07:34:01.163Z,7.82
2022-08-17T07:37:05.388Z,6.93
2022-08-17T07:40:23.561Z,6.97
2022-08-17T07:43:29.532Z,7.07
2022-08-17T07:46:54.107Z,6.47
2022-08-17T07:49:56.553Z,6.05
2022-08-17T07:53:10.626Z,6.88
2022-08-17T07:56:34.433Z,6.47
2022-08-17T07:59:40.738Z,6.10
2022-08-17T08:02:59.856Z,6.75
2022-08-17T08:06:04.107Z,6.38
2022-08-17T08:09:06.541Z,5.90
2022-08-17T08:12:33.787Z,6.18
2022-08-17T08:15:40.307Z,6.10
2022-08-17T08:18:55.915Z,6.22
2022-08-17T08:22:06.038Z,5.70
2022-08-17T08:25:20.994Z,5.63
2022-08-17T08:28:30.866Z,5.35
2022-08-17T08:31:48.487Z,5.40
2022-08-17T08:35:03.867Z,5.75
2022-08-17T08:38:16.233Z,5.55
2022-08-17T08:41:31.444Z,5.30
2022-08-17T08:45:00.585Z,5.03
2022-08-17T08:48:53.899Z,5.30
2022-08-17T08:51:52.767Z,4.57
2022-08-17T08:55:03.935Z,5.10
2022-08-17T08:58:31.455Z,5.40
2022-08-17T09:01:40.286Z,5.07
2022-08-17T09:05:13.771Z,4.68
2022-08-17T09:08:28.787Z,5.28
2022-08-17T09:12:02.011Z,5.03
2022-08-17T09:15:12.294Z,5.45
2022-08-17T09:19:00.613Z,5.35
2022-08-17T09:21:52.473Z,4.60
2022-08-17T09:25:00.875Z,4.47
2022-08-17T09:28:08.703Z,5.20
2022-08-17T09:31:17.647Z,4.25
2022-08-17T09:34:33.161Z,4.32
2022-08-17T09:37:44.601Z,5.07
2022-08-17T09:40:53.248Z,4.28
2022-08-17T09:44:03.315Z,4.10
2022-08-17T09:47:11.867Z,4.68
2022-08-17T09:50:20.150Z,4.30
2022-08-17T09:53:44.754Z,4.82
2022-08-17T09:57:25.922Z,4.30
2022-08-17T10:00:25.102Z,3.40
2022-08-17T10:03:44.118Z,4.22
2022-08-17T10:06:55.389Z,3.28
2022-08-17T10:10:02.562Z,3.58
2022-08-17T10:13:11.000Z,3.80
2022-08-17T10:16:22.650Z,4.07
2022-08-17T10:19:34.232Z,4.10
2022-08-17T10:23:02.338Z,4.20
2022-08-17T10:26:14.838Z,3.90
2022-08-17T10:29:23.519Z,4.15
2022-08-17T10:32:34.387Z,3.55
2022-08-17T10:35:44.129Z,4.10
2022-08-17T10:38:50.832Z,3.67
2022-08-17T10:41:58.749Z,3.88
2022-08-17T10:45:07.090Z,3.88
2022-08-17T10:48:32.834Z,3.92
2022-08-17T10:51:37.974Z,3.47
2022-08-17T10:54:49.089Z,3.75
2022-08-17T10:57:54.798Z,3.78
2022-08-17T11:00:59.537Z,3.97
2022-08-17T11:04:12.120Z,3.92
2022-08-17T11:07:31.924Z,4.05
2022-08-17T11:10:51.985Z,3.70
2022-08-17T11:14:11.115Z,4.07
2022-08-17T11:17:36.190Z,4.22
2022-08-17T11:21:05.665Z,4.82
2022-08-17T11:24:30.538Z,4.32
2022-08-17T11:27:36.568Z,4.78
2022-08-17T11:30:46.981Z,4.53
2022-08-17T11:33:59.138Z,4.68
2022-08-17T11:37:31.791Z,4.05
2022-08-17T11:40:43.175Z,4.30
2022-08-17T11:44:01.907Z,4.80
2022-08-17T11:47:31.077Z,4.68
2022-08-17T11:51:02.931Z,4.80
2022-08-17T11:58:01.658Z,4.38
2022-08-17T12:01:06.911Z,4.18
2022-08-17T12:04:24.964Z,4.60
2022-08-17T12:07:27.611Z,4.30
2022-08-17T12:10:32.394Z,4.15
2022-08-17T12:13:43.233Z,4.20
2022-08-17T12:16:59.039Z,4.30
2022-08-17T12:20:16.142Z,4.63
2022-08-17T12:23:27.141Z,4.55
2022-08-17T12:26:33.202Z,4.30
2022-08-17T12:29:38.827Z,4.40
2022-08-17T12:32:47.625Z,4.07
2022-08-17T12:35:59.319Z,4.55
2022-08-17T12:39:13.860Z,3.70
2022-08-17T12:42:24.777Z,3.97
2022-08-17T12:45:30.286Z,3.97
2022-08-17T12:48:36.205Z,4.15
2022-08-17T12:51:44.091Z,4.50
2022-08-17T12:54:51.077Z,3.80
2022-08-17T12:57:55.390Z,4.32
2022-08-17T13:01:01.043Z,4.63
2022-08-17T13:04:06.557Z,3.72
2022-08-17T13:07:09.026Z,4.28
2022-08-17T13:10:18.250Z,3.80
2022-08-17T13:13:24.264Z,4.03
2022-08-17T13:16:28.779Z,3.83
2022-08-17T13:19:40.925Z,3.50
2022-08-17T13:22:45.288Z,3.22
2022-08-17T13:25:54.484Z,3.47
2022-08-17T13:28:57.431Z,2.83
2022-08-17T13:32:19.815Z,3.50
2022-08-17T13:35:39.267Z,3.67
2022-08-17T13:38:47.876Z,3.42
2022-08-17T13:41:52.235Z,3.80
2022-08-17T13:44:54.691Z,3.45
2022-08-17T13:48:10.954Z,2.92
2022-08-17T13:51:26.586Z,3.55
2022-08-17T13:54:31.946Z,3.92
2022-08-17T13:57:35.843Z,3.80
2022-08-17T14:00:39.436Z,3.42
2022-08-17T14:03:41.888Z,3.85
2022-08-17T14:06:53.997Z,3.90
2022-08-17T14:10:01.314Z,3.80
2022-08-17T14:13:04.597Z,3.90
2022-08-17T14:16:07.497Z,3.67
2022-08-17T14:19:11.510Z,4.22
2022-08-17T14:22:23.680Z,3.90
2022-08-17T14:25:28.759Z,3.95
2022-08-17T14:28:31.983Z,3.60
2022-08-17T14:31:37.623Z,3.72
2022-08-17T14:34:40.265Z,3.63
2022-08-17T14:37:45.645Z,3.40
2022-08-17T14:40:48.879Z,3.60
2022-08-17T14:43:52.889Z,3.58
2022-08-17T14:46:55.345Z,3.65
2022-08-17T14:49:59.147Z,3.72
2022-08-17T14:53:04.385Z,4.03
2022-08-17T14:56:07.322Z,4.28
2022-08-17T14:59:09.870Z,4.35
2022-08-17T15:02:13.177Z,4.38
2022-08-17T15:05:17.753Z,4.10
2022-08-17T15:08:21.566Z,4.50
2022-08-17T15:11:24.108Z,4.05
2022-08-17T15:14:26.664Z,4.20
2022-08-17T15:17:45.000Z,4.78
2022-08-17T15:20:52.735Z,4.03
2022-08-17T15:23:56.613Z,4.80
2022-08-17T15:26:59.071Z,4.68
2022-08-17T15:30:01.717Z,4.97
2022-08-17T15:33:05.090Z,4.78
2022-08-17T15:36:09.054Z,5.70
2022-08-17T15:39:12.850Z,4.53
2022-08-17T15:42:16.149Z,4.53
2022-08-17T15:45:24.607Z,4.68
2022-08-17T15:48:40.730Z,4.93
2022-08-17T15:51:43.281Z,4.45
2022-08-17T15:54:52.063Z,4.43
2022-08-17T15:57:55.233Z,4.68
2022-08-17T16:01:15.143Z,4.60
2022-08-17T16:04:29.722Z,4.78
2022-08-17T16:07:33.347Z,5.00
2022-08-17T16:10:37.336Z,4.20
2022-08-17T16:13:40.652Z,4.60
2022-08-17T16:16:43.150Z,5.05
2022-08-17T16:19:46.037Z,4.82
2022-08-17T16:22:50.878Z,4.15
2022-08-17T16:25:54.863Z,4.38
2022-08-17T16:28:59.145Z,4.78
2022-08-17T16:32:10.068Z,5.30
2022-08-17T16:38:18.765Z,5.97
2022-08-17T16:41:45.290Z,4.75
2022-08-17T16:44:48.171Z,5.70
2022-08-17T16:47:52.030Z,5.55
2022-08-17T16:51:03.534Z,5.65
2022-08-17T16:54:08.275Z,5.68
2022-08-17T16:57:12.458Z,6.00
2022-08-17T17:00:16.986Z,5.75
2022-08-17T17:03:25.749Z,5.93
2022-08-17T17:06:40.688Z,6.45
2022-08-17T17:09:46.420Z,5.65
2022-08-17T17:13:03.566Z,6.45
2022-08-17T17:16:17.967Z,6.28
2022-08-17T17:19:34.356Z,6.25
2022-08-17T17:22:47.264Z,6.15
2022-08-17T17:25:55.787Z,6.80
2022-08-17T17:29:12.317Z,6.60
2022-08-17T17:32:21.395Z,7.28
2022-08-17T17:35:31.574Z,6.97
2022-08-17T17:38:41.435Z,6.40
2022-08-17T17:41:48.166Z,6.60
2022-08-17T17:45:00.365Z,6.55
2022-08-17T17:48:03.168Z,7.10
2022-08-17T17:51:16.038Z,7.07
2022-08-17T17:54:50.500Z,6.88
2022-08-17T17:58:04.159Z,6.53
2022-08-17T18:01:41.793Z,6.97
2022-08-17T18:05:00.107Z,7.50
2022-08-17T18:08:16.551Z,6.38
2022-08-17T18:11:32.370Z,6.97
2022-08-17T18:14:58.595Z,7.55
2022-08-17T18:18:26.240Z,7.55
2022-08-17T18:21:35.964Z,7.45
2022-08-17T18:24:40.546Z,7.43
2022-08-17T18:27:52.685Z,7.38
2022-08-17T18:31:07.865Z,7.13
2022-08-17T18:34:45.850Z,8.35
2022-08-17T18:37:50.218Z,7.43
2022-08-17T18:41:06.273Z,7.90
2022-08-17T18:44:24.643Z,8.05
2022-08-17T18:47:29.769Z,7.97
2022-08-17T18:50:41.223Z,7.10
2022-08-17T18:53:43.764Z,8.05
2022-08-17T18:56:51.574Z,8.00
2022-08-17T18:59:54.111Z,7.13
2022-08-17T19:03:00.827Z,7.45
2022-08-17T19:06:22.838Z,8.27
2022-08-17T19:09:33.589Z,7.47
2022-08-17T19:12:40.890Z,7.72
2022-08-17T19:16:13.124Z,7.45
2022-08-17T19:19:18.662Z,8.13
2022-08-17T19:22:29.303Z,8.05
2022-08-17T19:25:37.062Z,7.38
2022-08-17T19:28:48.018Z,7.70
2022-08-17T19:31:55.204Z,8.00
2022-08-17T19:34:58.439Z,8.68
2022-08-17T19:38:12.863Z,8.23
2022-08-17T19:41:23.372Z,7.47
2022-08-17T19:44:42.724Z,8.35
2022-08-17T19:48:01.671Z,7.93
2022-08-17T19:51:11.498Z,7.43
2022-08-17T19:54:22.089Z,8.23
2022-08-17T19:57:36.701Z,8.73
2022-08-17T20:00:46.926Z,8.60
2022-08-17T20:03:57.354Z,7.88
2022-08-17T20:07:04.398Z,8.10
2022-08-17T20:10:13.888Z,8.70
2022-08-17T20:13:33.525Z,8.88
2022-08-17T20:16:36.754Z,8.55
2022-08-17T20:19:48.557Z,8.90
2022-08-17T20:22:57.937Z,8.70
2022-08-17T20:26:17.179Z,8.77
2022-08-17T20:29:37.472Z,8.73
2022-08-17T20:32:52.919Z,8.55
2022-08-17T20:36:16.986Z,8.25
2022-08-17T20:39:34.654Z,9.27
2022-08-17T20:42:40.303Z,9.18
2022-08-17T20:46:20.192Z,8.02
2022-08-17T20:49:28.653Z,9.15
2022-08-17T20:52:52.372Z,8.82
2022-08-17T20:55:55.763Z,9.65
2022-08-17T20:59:00.760Z,8.68
2022-08-17T21:02:18.483Z,9.30
2022-08-17T21:05:32.330Z,8.65
2022-08-17T21:08:45.684Z,10.15
2022-08-17T21:12:03.733Z,8.13
2022-08-17T21:15:24.140Z,8.80
2022-08-17T21:18:35.925Z,9.35
2022-08-17T21:21:46.675Z,9.52
2022-08-17T21:24:58.639Z,9.57
2022-08-17T21:28:15.644Z,9.57
2022-08-17T21:31:35.844Z,9.48
2022-08-17T21:34:42.433Z,8.82
2022-08-17T21:37:47.943Z,9.52
2022-08-17T21:40:53.065Z,9.18
2022-08-17T21:44:03.047Z,9.32
2022-08-17T21:47:21.382Z,9.88
2022-08-17T21:50:26.220Z,9.15
2022-08-17T21:53:38.854Z,9.88
2022-08-17T21:56:46.812Z,8.75
2022-08-17T21:59:54.519Z,9.23
2022-08-17T22:03:01.070Z,9.55
2022-08-17T22:06:21.088Z,9.10
2022-08-17T22:09:26.536Z,9.57
2022-08-17T22:12:30.436Z,9.40
2022-08-17T22:15:36.906Z,9.25
2022-08-17T22:18:45.040Z,9.43
2022-08-17T22:21:47.534Z,9.90
2022-08-17T22:24:56.836Z,9.73
2022-08-17T22:28:02.195Z,9.20
2022-08-17T22:31:05.651Z,8.50
2022-08-17T22:34:13.779Z,9.07
2022-08-17T22:37:21.342Z,9.50
2022-08-17T22:40:32.661Z,9.20
2022-08-17T22:43:39.061Z,9.45
2022-08-17T22:46:56.235Z,8.48
2022-08-17T22:50:02.731Z,9.85
2022-08-17T22:53:34.024Z,9.55
2022-08-17T22:56:55.342Z,8.80
2022-08-17T22:59:57.991Z,9.40
2022-08-17T23:03:11.249Z,9.35
2022-08-17T23:06:15.103Z,10.00
2022-08-17T23:09:17.603Z,8.65
2022-08-17T23:12:26.227Z,9.43
2022-08-17T23:15:33.903Z,9.07
2022-08-17T23:18:36.401Z,9.05
2022-08-17T23:21:40.664Z,9.10
2022-08-17T23:24:46.361Z,10.43
2022-08-17T23:27:49.637Z,9.10
2022-08-17T23:30:52.231Z,10.25
2022-08-17T23:33:54.880Z,9.88
2022-08-17T23:37:02.099Z,9.38
2022-08-17T23:40:05.604Z,9.07
2022-08-17T23:43:23.336Z,9.02
2022-08-17T23:46:28.346Z,8.98
2022-08-17T23:49:31.227Z,9.63
2022-08-17T23:52:36.818Z,9.60
2022-08-17T23:55:39.329Z,9.13
2022-08-17T23:58:43.550Z,9.38
